createdAt,value
2019-04-25T00:00:27.501Z,11
2019-04-25T00:01:18.374Z,11.1
2019-04-25T00:02:09.244Z,11
2019-04-25T00:03:01.218Z,10.9
2019-04-25T00:03:53.333Z,10.9
2019-04-25T00:04:44.673Z,10.8
2019-04-25T00:05:36.279Z,10.8
2019-04-25T00:06:27.287Z,10.8
2019-04-25T00:07:18.162Z,10.9
2019-04-25T00:08:09.061Z,10.9
2019-04-25T00:08:59.939Z,10.9
2019-04-25T00:09:51.689Z,10.9
2019-04-25T00:10:43.626Z,10.9
2019-04-25T00:11:34.665Z,10.9
2019-04-25T00:12:25.534Z,10.9
2019-04-25T00:13:16.433Z,10.9
2019-04-25T00:14:07.298Z,10.8
2019-04-25T00:14:58.171Z,10.8
2019-04-25T00:15:49.050Z,10.8
2019-04-25T00:16:41.013Z,10.8
2019-04-25T00:17:32.246Z,10.8
2019-04-25T00:18:23.336Z,10.9
2019-04-25T00:19:14.281Z,10.8
2019-04-25T00:20:05.149Z,10.8
2019-04-25T00:20:56.021Z,10.8
2019-04-25T00:21:46.902Z,10.8
2019-04-25T00:22:39.178Z,10.8
2019-04-25T00:23:31.465Z,10.9
2019-04-25T00:24:23.805Z,10.8
2019-04-25T00:25:17.621Z,10.8
2019-04-25T00:26:08.707Z,10.8
2019-04-25T00:26:59.579Z,10.7
2019-04-25T00:27:51.620Z,10.7
2019-04-25T00:28:44.184Z,10.6
2019-04-25T00:29:35.323Z,10.6
2019-04-25T00:30:26.206Z,10.5
2019-04-25T00:31:17.144Z,10.4
2019-04-25T00:32:08.105Z,10.4
2019-04-25T00:32:59.037Z,10.4
2019-04-25T00:33:49.901Z,10.4
2019-04-25T00:34:43.153Z,10.4
2019-04-25T00:35:34.176Z,10.5
2019-04-25T00:36:25.042Z,10.4
2019-04-25T00:37:15.919Z,10.4
2019-04-25T00:38:06.812Z,10.3
2019-04-25T00:38:57.679Z,10.3
2019-04-25T00:39:49.080Z,10.2
2019-04-25T00:40:40.015Z,10.2
2019-04-25T00:41:31.984Z,10.1
2019-04-25T00:42:23.284Z,10.1
2019-04-25T00:43:14.204Z,10.1
2019-04-25T00:44:05.069Z,10.2
2019-04-25T00:44:55.937Z,10.2
2019-04-25T00:45:47.464Z,10.1
2019-04-25T00:46:38.359Z,10.1
2019-04-25T00:47:29.233Z,10.1
2019-04-25T00:48:20.101Z,10.2
2019-04-25T00:49:12.246Z,10.1
2019-04-25T00:50:03.202Z,10.1
2019-04-25T00:50:54.609Z,10
2019-04-25T00:51:46.137Z,10.1
2019-04-25T00:52:37.131Z,10
2019-04-25T00:53:28.003Z,10
2019-04-25T00:54:18.904Z,9.9
2019-04-25T00:55:09.770Z,9.9
2019-04-25T00:56:01.405Z,9.8
2019-04-25T00:56:53.573Z,9.8
2019-04-25T00:57:44.855Z,9.8
2019-04-25T00:58:35.735Z,9.8
2019-04-25T00:59:26.629Z,9.8
2019-04-25T01:00:17.499Z,9.7
2019-04-25T01:01:08.372Z,9.7
2019-04-25T01:01:59.244Z,9.7
2019-04-25T01:02:50.118Z,9.8
2019-04-25T01:03:42.589Z,9.7
2019-04-25T01:04:34.238Z,9.8
2019-04-25T01:05:25.105Z,9.7
2019-04-25T01:06:15.981Z,9.7
2019-04-25T01:07:06.853Z,9.7
2019-04-25T01:07:57.726Z,9.7
2019-04-25T01:08:48.627Z,9.7
2019-04-25T01:09:39.492Z,9.7
2019-04-25T01:10:31.565Z,9.8
2019-04-25T01:11:22.523Z,9.8
2019-04-25T01:12:13.391Z,9.9
2019-04-25T01:13:04.259Z,9.9
2019-04-25T01:13:55.161Z,10
2019-04-25T01:14:46.510Z,10
2019-04-25T01:15:37.409Z,10.1
2019-04-25T01:16:28.276Z,10.1
2019-04-25T01:17:19.143Z,10.1
2019-04-25T01:18:10.014Z,10.1
2019-04-25T01:19:00.929Z,10.1
2019-04-25T01:19:51.806Z,10.1
2019-04-25T01:20:43.411Z,10.2
2019-04-25T01:21:34.375Z,10.2
2019-04-25T01:22:25.242Z,10.3
2019-04-25T01:23:16.110Z,10.4
2019-04-25T01:24:07.006Z,10.4
2019-04-25T01:24:57.873Z,10.4
2019-04-25T01:25:49.476Z,10.5
2019-04-25T01:26:40.362Z,10.5
2019-04-25T01:27:31.230Z,10.5
2019-04-25T01:28:22.101Z,10.5
2019-04-25T01:29:13.549Z,10.5
2019-04-25T01:30:06.097Z,10.4
2019-04-25T01:30:57.037Z,10.4
2019-04-25T01:31:48.003Z,10.4
2019-04-25T01:32:38.898Z,10.4
2019-04-25T01:33:29.768Z,10.4
2019-04-25T01:34:20.758Z,10.4
2019-04-25T01:35:11.745Z,10.4
2019-04-25T01:36:03.431Z,10.4
2019-04-25T01:36:54.976Z,10.4
2019-04-25T01:37:47.344Z,10.4
2019-04-25T01:38:38.335Z,10.3
2019-04-25T01:39:29.232Z,10.3
2019-04-25T01:40:20.104Z,10.2
2019-04-25T01:41:10.971Z,10.1
2019-04-25T01:42:01.866Z,10.1
2019-04-25T01:42:53.853Z,10
2019-04-25T01:43:45.572Z,9.9
2019-04-25T01:44:36.471Z,9.9
2019-04-25T01:45:27.341Z,9.9
2019-04-25T01:46:18.205Z,9.8
2019-04-25T01:47:09.079Z,9.7
2019-04-25T01:47:59.957Z,9.7
2019-04-25T01:48:50.825Z,9.7
2019-04-25T01:49:41.719Z,9.6
2019-04-25T01:50:33.173Z,9.6
2019-04-25T01:51:25.992Z,9.6
2019-04-25T01:52:16.863Z,9.4
2019-04-25T01:53:07.728Z,9.3
2019-04-25T01:53:58.775Z,9.3
2019-04-25T01:54:50.523Z,9.4
2019-04-25T01:55:51.586Z,9.5
2019-04-25T01:56:37.240Z,9.6
2019-04-25T01:57:28.108Z,9.4
2019-04-25T01:58:18.980Z,9.4
2019-04-25T01:59:09.846Z,9.5
2019-04-25T02:00:01.819Z,9.6
2019-04-25T02:00:54.632Z,9.6
2019-04-25T02:01:45.946Z,9.7
2019-04-25T02:02:36.813Z,9.7
2019-04-25T02:03:27.680Z,9.7
2019-04-25T02:04:18.545Z,9.6
2019-04-25T02:05:09.440Z,9.5
2019-04-25T02:06:00.315Z,9.5
2019-04-25T02:06:51.463Z,9.4
2019-04-25T02:07:42.370Z,9.4
2019-04-25T02:08:33.963Z,9.3
2019-04-25T02:09:25.005Z,9.2
2019-04-25T02:10:15.934Z,9.1
2019-04-25T02:11:06.810Z,9.1
2019-04-25T02:11:57.679Z,9.1
2019-04-25T02:12:48.554Z,9.1
2019-04-25T02:13:39.420Z,9
2019-04-25T02:14:30.295Z,9.1
2019-04-25T02:15:21.198Z,9
2019-04-25T02:16:12.188Z,9
2019-04-25T02:17:04.511Z,9
2019-04-25T02:17:57.124Z,9.1
2019-04-25T02:18:49.743Z,9.1
2019-04-25T02:19:40.613Z,9
2019-04-25T02:20:31.652Z,9.1
2019-04-25T02:21:23.550Z,9
2019-04-25T02:22:14.627Z,9.1
2019-04-25T02:23:05.532Z,9.1
2019-04-25T02:23:56.669Z,9
2019-04-25T02:24:47.570Z,8.9
2019-04-25T02:25:38.465Z,8.9
2019-04-25T02:26:29.341Z,8.8
2019-04-25T02:27:20.216Z,8.8
2019-04-25T02:28:11.084Z,8.9
2019-04-25T02:29:04.208Z,8.9
2019-04-25T02:29:56.309Z,8.9
2019-04-25T02:30:48.091Z,8.9
2019-04-25T02:31:38.980Z,9
2019-04-25T02:32:37.057Z,9.1
2019-04-25T02:33:28.173Z,9.1
2019-04-25T02:34:19.045Z,9.1
2019-04-25T02:35:10.046Z,9.1
2019-04-25T02:36:03.703Z,9
2019-04-25T02:36:57.921Z,9
2019-04-25T02:37:50.292Z,8.9
2019-04-25T02:38:41.161Z,8.9
2019-04-25T02:39:34.795Z,8.8
2019-04-25T02:40:27.839Z,8.8
2019-04-25T02:41:18.735Z,8.8
2019-04-25T02:42:09.606Z,8.8
2019-04-25T02:43:01.984Z,8.8
2019-04-25T02:43:55.209Z,8.8
2019-04-25T02:44:48.921Z,8.8
2019-04-25T02:45:39.790Z,8.8
2019-04-25T02:46:30.692Z,8.8
2019-04-25T02:47:21.563Z,8.8
2019-04-25T02:48:14.188Z,8.8
2019-04-25T02:49:08.788Z,8.8
2019-04-25T02:50:00.854Z,8.8
2019-04-25T02:50:53.995Z,8.8
2019-04-25T02:51:46.355Z,8.8
2019-04-25T02:52:37.227Z,8.8
2019-04-25T02:53:28.098Z,8.8
2019-04-25T02:54:18.966Z,8.8
2019-04-25T02:55:11.053Z,8.8
2019-04-25T02:56:19.324Z,8.8
2019-04-25T02:57:02.025Z,8.9
2019-04-25T02:57:54.180Z,8.9
2019-04-25T02:58:45.140Z,8.9
2019-04-25T02:59:36.945Z,8.9
2019-04-25T03:00:28.133Z,8.9
2019-04-25T03:01:22.559Z,9
2019-04-25T03:02:15.329Z,9.1
2019-04-25T03:03:07.474Z,9.1
2019-04-25T03:03:59.758Z,9.1
2019-04-25T03:04:51.473Z,9.2
2019-04-25T03:05:42.360Z,9.2
2019-04-25T03:06:35.770Z,9.2
2019-04-25T03:07:26.677Z,9.2
2019-04-25T03:08:17.563Z,9.3
2019-04-25T03:09:09.770Z,9.3
2019-04-25T03:10:01.972Z,9.3
2019-04-25T03:10:54.275Z,9.3
2019-04-25T03:11:47.538Z,9.3
2019-04-25T03:12:38.669Z,9.3
2019-04-25T03:13:29.541Z,9.3
2019-04-25T03:14:20.424Z,9.3
2019-04-25T03:15:11.292Z,9.3
2019-04-25T03:16:03.371Z,9.3
2019-04-25T03:16:58.991Z,9.3
2019-04-25T03:17:51.154Z,9.3
2019-04-25T03:18:44.133Z,9.3
2019-04-25T03:19:35.182Z,9.3
2019-04-25T03:20:26.056Z,9.3
2019-04-25T03:21:17.565Z,9.3
2019-04-25T03:22:11.479Z,9.3
2019-04-25T03:23:05.216Z,9.3
2019-04-25T03:23:58.442Z,9.3
2019-04-25T03:24:50.297Z,9.3
2019-04-25T03:25:41.173Z,9.3
2019-04-25T03:26:38.472Z,9.3
2019-04-25T03:27:27.900Z,9.4
2019-04-25T03:28:18.774Z,9.4
2019-04-25T03:29:09.654Z,9.4
2019-04-25T03:30:01.904Z,9.4
2019-04-25T03:30:54.875Z,9.4
2019-04-25T03:31:47.969Z,9.4
2019-04-25T03:32:38.839Z,9.4
2019-04-25T03:33:29.731Z,9.5
2019-04-25T03:34:20.985Z,9.6
2019-04-25T03:35:12.977Z,9.7
2019-04-25T03:36:05.450Z,9.9
2019-04-25T03:36:57.193Z,10.1
2019-04-25T03:37:48.059Z,10.2
2019-04-25T03:38:38.931Z,10.3
2019-04-25T03:39:29.805Z,10.4
2019-04-25T03:40:20.673Z,10.5
2019-04-25T03:41:11.541Z,10.6
2019-04-25T03:42:04.236Z,10.6
2019-04-25T03:42:55.878Z,10.6
2019-04-25T03:43:46.751Z,10.7
2019-04-25T03:44:37.633Z,10.7
2019-04-25T03:45:28.501Z,10.7
2019-04-25T03:46:19.369Z,10.8
2019-04-25T03:47:10.271Z,10.8
2019-04-25T03:48:01.874Z,10.8
2019-04-25T03:48:53.936Z,10.8
2019-04-25T03:49:44.904Z,10.8
2019-04-25T03:50:35.770Z,10.9
2019-04-25T03:51:26.637Z,10.9
2019-04-25T03:52:17.544Z,10.9
2019-04-25T03:53:08.415Z,10.9
2019-04-25T03:53:59.282Z,10.9
2019-04-25T03:54:50.154Z,11
2019-04-25T03:55:41.036Z,11
2019-04-25T03:56:33.201Z,11
2019-04-25T03:57:24.257Z,11
2019-04-25T03:58:15.129Z,11
2019-04-25T03:59:06.440Z,11.1
2019-04-25T03:59:58.027Z,11.1
2019-04-25T04:00:49.138Z,11.1
2019-04-25T04:01:40.063Z,11.1
2019-04-25T04:02:30.968Z,11.1
2019-04-25T04:03:21.839Z,11.1
2019-04-25T04:04:13.690Z,11.1
2019-04-25T04:05:07.393Z,11.1
2019-04-25T04:05:59.104Z,11.1
2019-04-25T04:06:49.969Z,11.1
2019-04-25T04:07:40.894Z,11.1
2019-04-25T04:08:31.765Z,11.1
2019-04-25T04:09:24.005Z,11.1
2019-04-25T04:10:15.510Z,11.1
2019-04-25T04:11:07.672Z,11.1
2019-04-25T04:11:59.326Z,11.1
2019-04-25T04:12:50.251Z,11.1
2019-04-25T04:13:41.124Z,11.1
2019-04-25T04:14:33.662Z,11.1
2019-04-25T04:15:25.059Z,11.2
2019-04-25T04:16:16.069Z,11.2
2019-04-25T04:17:07.682Z,11.2
2019-04-25T04:17:59.545Z,11.2
2019-04-25T04:18:50.411Z,11.2
2019-04-25T04:19:41.282Z,11.2
2019-04-25T04:20:33.493Z,11.2
2019-04-25T04:21:24.477Z,11.2
2019-04-25T04:22:16.182Z,11.2
2019-04-25T04:23:07.219Z,11.2
2019-04-25T04:23:58.095Z,11.2
2019-04-25T04:24:48.956Z,11.2
2019-04-25T04:25:39.825Z,11.2
2019-04-25T04:26:30.691Z,11.2
2019-04-25T04:27:21.562Z,11.2
2019-04-25T04:28:14.014Z,11.2
2019-04-25T04:29:05.802Z,11.1
2019-04-25T04:29:57.577Z,11.1
2019-04-25T04:30:48.452Z,11.1
2019-04-25T04:31:39.319Z,11.1
2019-04-25T04:32:30.193Z,11
2019-04-25T04:33:28.018Z,11
2019-04-25T04:34:17.065Z,11
2019-04-25T04:35:08.649Z,10.9
2019-04-25T04:35:59.600Z,10.9
2019-04-25T04:36:50.763Z,10.8
2019-04-25T04:37:43.007Z,10.8
2019-04-25T04:38:34.330Z,10.8
2019-04-25T04:39:25.306Z,10.7
2019-04-25T04:40:17.273Z,10.7
2019-04-25T04:41:09.624Z,10.7
2019-04-25T04:42:00.586Z,10.7
2019-04-25T04:42:51.570Z,10.7
2019-04-25T04:43:43.955Z,10.7
2019-04-25T04:44:34.986Z,10.7
2019-04-25T04:45:25.861Z,10.6
2019-04-25T04:46:18.503Z,10.6
2019-04-25T04:47:09.983Z,10.6
2019-04-25T04:48:00.950Z,10.6
2019-04-25T04:48:51.854Z,10.6
2019-04-25T04:49:43.904Z,10.6
2019-04-25T04:50:34.901Z,10.6
2019-04-25T04:51:25.772Z,10.6
2019-04-25T04:52:16.975Z,10.6
2019-04-25T04:53:09.185Z,10.7
2019-04-25T04:54:00.158Z,10.6
2019-04-25T04:54:57.635Z,10.7
2019-04-25T04:55:46.838Z,10.7
2019-04-25T04:56:37.706Z,10.7
2019-04-25T04:57:33.178Z,10.7
2019-04-25T04:58:25.107Z,10.7
2019-04-25T04:59:16.563Z,10.7
2019-04-25T05:00:07.485Z,10.8
2019-04-25T05:00:58.355Z,10.8
2019-04-25T05:01:49.225Z,10.8
2019-04-25T05:02:40.100Z,10.8
2019-04-25T05:03:30.971Z,10.8
2019-04-25T05:04:22.487Z,10.9
2019-04-25T05:05:16.026Z,10.9
2019-04-25T05:06:06.905Z,10.9
2019-04-25T05:06:57.776Z,11
2019-04-25T05:07:48.657Z,11.1
2019-04-25T05:08:39.523Z,11.1
2019-04-25T05:09:30.389Z,11.1
2019-04-25T05:10:21.301Z,11.1
2019-04-25T05:11:12.781Z,11.1
2019-04-25T05:12:04.121Z,11.2
2019-04-25T05:12:55.035Z,11.2
2019-04-25T05:13:45.915Z,11.2
2019-04-25T05:14:36.796Z,11.1
2019-04-25T05:15:27.692Z,11.1
2019-04-25T05:16:18.567Z,11.1
2019-04-25T05:17:09.436Z,11.1
2019-04-25T05:18:00.309Z,11.1
2019-04-25T05:18:51.174Z,11.1
2019-04-25T05:19:43.403Z,11.1
2019-04-25T05:20:35.596Z,11
2019-04-25T05:21:26.561Z,10.9
2019-04-25T05:22:18.189Z,10.9
2019-04-25T05:23:09.088Z,10.9
2019-04-25T05:23:59.955Z,10.9
2019-04-25T05:24:50.817Z,10.9
2019-04-25T05:25:41.758Z,11
2019-04-25T05:26:34.081Z,11.1
2019-04-25T05:27:34.432Z,11.1
2019-04-25T05:28:21.013Z,11.2
2019-04-25T05:29:13.795Z,11.3
2019-04-25T05:30:04.914Z,11.3
2019-04-25T05:30:55.813Z,11.3
2019-04-25T05:31:46.681Z,11.3
2019-04-25T05:32:37.567Z,11.3
2019-04-25T05:33:28.450Z,11.3
2019-04-25T05:34:19.566Z,11.4
2019-04-25T05:35:10.539Z,11.4
2019-04-25T05:36:01.443Z,11.5
2019-04-25T05:36:53.700Z,11.6
2019-04-25T05:37:44.759Z,11.7
2019-04-25T05:38:35.635Z,11.8
2019-04-25T05:39:26.520Z,11.9
2019-04-25T05:40:18.225Z,12
2019-04-25T05:41:09.202Z,12.1
2019-04-25T05:42:00.076Z,12.2
2019-04-25T05:42:50.961Z,12.3
2019-04-25T05:43:43.412Z,12.4
2019-04-25T05:44:34.436Z,12.5
2019-04-25T05:45:25.744Z,12.5
2019-04-25T05:46:16.897Z,12.6
2019-04-25T05:47:07.878Z,12.6
2019-04-25T05:47:58.767Z,12.7
2019-04-25T05:48:49.657Z,12.7
2019-04-25T05:49:40.524Z,12.7
2019-04-25T05:50:31.392Z,12.8
2019-04-25T05:51:23.892Z,12.8
2019-04-25T05:52:15.931Z,12.8
2019-04-25T05:53:06.920Z,12.8
2019-04-25T05:53:57.796Z,12.8
2019-04-25T05:54:48.667Z,12.8
2019-04-25T05:55:39.545Z,12.8
2019-04-25T05:56:30.435Z,12.8
2019-04-25T05:57:21.732Z,12.8
2019-04-25T05:58:13.799Z,12.8
2019-04-25T05:59:05.434Z,12.8
2019-04-25T05:59:56.450Z,12.8
2019-04-25T06:00:47.318Z,12.8
2019-04-25T06:01:38.220Z,12.8
2019-04-25T06:02:29.090Z,12.8
2019-04-25T06:03:20.791Z,12.8
2019-04-25T06:04:13.562Z,12.8
2019-04-25T06:05:04.787Z,12.8
2019-04-25T06:05:55.688Z,12.8
2019-04-25T06:06:46.639Z,12.8
2019-04-25T06:07:37.537Z,12.8
2019-04-25T06:08:28.414Z,12.8
2019-04-25T06:09:19.342Z,12.8
2019-04-25T06:10:10.227Z,12.8
2019-04-25T06:11:01.091Z,12.8
2019-04-25T06:11:53.319Z,12.8
2019-04-25T06:12:49.292Z,12.8
2019-04-25T06:13:40.166Z,12.8
2019-04-25T06:14:31.046Z,12.8
2019-04-25T06:15:23.703Z,12.8
2019-04-25T06:16:14.677Z,12.8
2019-04-25T06:17:05.583Z,12.8
2019-04-25T06:17:56.452Z,12.8
2019-04-25T06:18:47.322Z,12.8
2019-04-25T06:19:38.197Z,12.8
2019-04-25T06:20:29.084Z,12.8
2019-04-25T06:21:20.063Z,12.8
2019-04-25T06:22:10.966Z,12.8
2019-04-25T06:23:03.241Z,12.8
2019-04-25T06:23:54.469Z,12.8
2019-04-25T06:24:45.397Z,12.9
2019-04-25T06:25:39.717Z,12.9
2019-04-25T06:26:36.572Z,12.9
2019-04-25T06:27:27.086Z,12.9
2019-04-25T06:28:18.144Z,12.8
2019-04-25T06:29:09.193Z,12.9
2019-04-25T06:30:00.910Z,12.9
2019-04-25T06:30:51.991Z,12.9
2019-04-25T06:31:43.882Z,12.9
2019-04-25T06:32:35.450Z,12.9
2019-04-25T06:33:27.057Z,12.9
2019-04-25T06:34:18.017Z,12.9
2019-04-25T06:35:08.941Z,12.9
2019-04-25T06:35:59.862Z,12.9
2019-04-25T06:36:50.786Z,12.9
2019-04-25T06:37:41.728Z,12.9
2019-04-25T06:38:33.454Z,12.9
2019-04-25T06:39:25.508Z,12.9
2019-04-25T06:40:17.003Z,12.9
2019-04-25T06:41:07.873Z,12.9
2019-04-25T06:41:58.787Z,12.9
2019-04-25T06:42:49.654Z,12.9
2019-04-25T06:43:40.528Z,13
2019-04-25T06:44:31.398Z,12.9
2019-04-25T06:45:25.004Z,13
2019-04-25T06:46:16.163Z,13
2019-04-25T06:47:07.054Z,13
2019-04-25T06:47:57.919Z,13
2019-04-25T06:48:48.789Z,13
2019-04-25T06:49:39.661Z,13.1
2019-04-25T06:50:30.529Z,13.1
2019-04-25T06:51:21.489Z,13.1
2019-04-25T06:52:13.871Z,13.1
2019-04-25T06:53:05.197Z,13.1
2019-04-25T06:53:56.169Z,13.1
2019-04-25T06:54:47.038Z,13.1
2019-04-25T06:55:37.909Z,13.1
2019-04-25T06:56:28.773Z,13.1
2019-04-25T06:57:19.662Z,13.1
2019-04-25T06:58:12.717Z,13.1
2019-04-25T06:59:05.171Z,13.1
2019-04-25T06:59:56.051Z,13.1
2019-04-25T07:00:57.830Z,13.1
2019-04-25T07:01:43.962Z,13.1
2019-04-25T07:02:35.194Z,13.1
2019-04-25T07:03:26.873Z,13.1
2019-04-25T07:04:17.948Z,13.1
2019-04-25T07:05:08.817Z,13.1
2019-04-25T07:05:59.682Z,13.2
2019-04-25T07:06:50.547Z,13.2
2019-04-25T07:07:41.442Z,13.2
2019-04-25T07:08:33.260Z,13.2
2019-04-25T07:09:26.779Z,13.2
2019-04-25T07:10:17.881Z,13.2
2019-04-25T07:11:08.754Z,13.2
2019-04-25T07:11:59.625Z,13.2
2019-04-25T07:12:50.546Z,13.2
2019-04-25T07:13:41.410Z,13.2
2019-04-25T07:14:33.763Z,13.2
2019-04-25T07:15:27.903Z,13.2
2019-04-25T07:16:18.821Z,13.2
2019-04-25T07:17:09.686Z,13.2
2019-04-25T07:18:00.580Z,13.2
2019-04-25T07:18:51.452Z,13.3
2019-04-25T07:19:43.707Z,13.3
2019-04-25T07:20:35.513Z,13.3
2019-04-25T07:21:26.468Z,13.3
2019-04-25T07:22:17.351Z,13.3
2019-04-25T07:23:08.243Z,13.3
2019-04-25T07:23:59.106Z,13.3
2019-04-25T07:24:49.972Z,13.3
2019-04-25T07:25:40.840Z,13.3
2019-04-25T07:26:34.274Z,13.4
2019-04-25T07:27:28.347Z,13.4
2019-04-25T07:28:23.987Z,13.4
2019-04-25T07:29:15.102Z,13.4
2019-04-25T07:30:05.968Z,13.4
2019-04-25T07:30:56.893Z,13.4
2019-04-25T07:31:47.889Z,13.4
2019-04-25T07:32:38.898Z,13.4
2019-04-25T07:33:29.825Z,13.4
2019-04-25T07:34:20.689Z,13.4
2019-04-25T07:35:11.555Z,13.4
2019-04-25T07:36:04.034Z,13.4
2019-04-25T07:36:55.092Z,13.4
2019-04-25T07:37:45.961Z,13.4
2019-04-25T07:38:36.866Z,13.4
2019-04-25T07:39:27.730Z,13.4
2019-04-25T07:40:18.600Z,13.4
2019-04-25T07:41:09.471Z,13.4
2019-04-25T07:42:00.343Z,13.4
2019-04-25T07:42:51.209Z,13.4
2019-04-25T07:43:43.316Z,13.4
2019-04-25T07:44:46.066Z,13.4
2019-04-25T07:45:30.822Z,13.4
2019-04-25T07:46:23.270Z,13.5
2019-04-25T07:47:15.864Z,13.5
2019-04-25T07:48:06.915Z,13.6
2019-04-25T07:48:57.818Z,13.6
2019-04-25T07:49:48.687Z,13.6
2019-04-25T07:50:39.554Z,13.6
2019-04-25T07:51:30.421Z,13.6
2019-04-25T07:52:21.288Z,13.7
2019-04-25T07:53:14.074Z,13.7
2019-04-25T07:54:05.204Z,13.7
2019-04-25T07:54:56.071Z,13.7
2019-04-25T07:55:46.938Z,13.7
2019-04-25T07:56:37.919Z,13.7
2019-04-25T07:57:29.142Z,13.7
2019-04-25T07:58:20.034Z,13.8
2019-04-25T07:59:10.930Z,13.8
2019-04-25T08:00:03.212Z,13.8
2019-04-25T08:00:55.569Z,13.8
2019-04-25T08:01:46.441Z,13.8
2019-04-25T08:02:37.524Z,13.8
2019-04-25T08:03:28.500Z,13.8
2019-04-25T08:04:19.408Z,13.8
2019-04-25T08:05:10.273Z,13.8
2019-04-25T08:06:01.148Z,13.8
2019-04-25T08:06:52.015Z,13.8
2019-04-25T08:07:43.660Z,13.8
2019-04-25T08:08:34.959Z,13.8
2019-04-25T08:09:27.343Z,13.8
2019-04-25T08:10:19.051Z,13.9
2019-04-25T08:11:09.912Z,13.9
2019-04-25T08:12:00.777Z,13.9
2019-04-25T08:12:53.438Z,13.9
2019-04-25T08:13:44.531Z,13.9
2019-04-25T08:14:35.449Z,13.9
2019-04-25T08:15:26.352Z,13.9
2019-04-25T08:16:17.223Z,13.9
2019-04-25T08:17:08.088Z,14
2019-04-25T08:17:58.960Z,14
2019-04-25T08:18:49.827Z,14
2019-04-25T08:19:40.744Z,14
2019-04-25T08:20:32.764Z,14
2019-04-25T08:21:24.934Z,14.1
2019-04-25T08:22:15.803Z,14.1
2019-04-25T08:23:06.681Z,14.1
2019-04-25T08:23:57.551Z,14.1
2019-04-25T08:24:48.445Z,14.1
2019-04-25T08:25:40.561Z,14.1
2019-04-25T08:26:31.553Z,14.1
2019-04-25T08:27:23.150Z,14.1
2019-04-25T08:28:14.087Z,14.1
2019-04-25T08:29:04.961Z,14.1
2019-04-25T08:29:55.847Z,14.1
2019-04-25T08:30:46.748Z,14.1
2019-04-25T08:31:37.757Z,14.2
2019-04-25T08:32:28.704Z,14.2
2019-04-25T08:33:19.569Z,14.2
2019-04-25T08:34:10.434Z,14.3
2019-04-25T08:35:01.325Z,14.3
2019-04-25T08:36:04.073Z,14.3
2019-04-25T08:36:48.009Z,14.3
2019-04-25T08:37:38.876Z,14.3
2019-04-25T08:38:31.352Z,14.3
2019-04-25T08:39:23.723Z,14.3
2019-04-25T08:40:14.975Z,14.3
2019-04-25T08:41:05.850Z,14.3
2019-04-25T08:41:56.716Z,14.3
2019-04-25T08:42:47.580Z,14.3
2019-04-25T08:43:39.355Z,14.3
2019-04-25T08:44:31.546Z,14.3
2019-04-25T08:45:24.435Z,14.3
2019-04-25T08:46:15.443Z,14.4
2019-04-25T08:47:06.306Z,14.4
2019-04-25T08:47:57.171Z,14.4
2019-04-25T08:48:48.035Z,14.4
2019-04-25T08:49:38.901Z,14.4
2019-04-25T08:50:31.913Z,14.4
2019-04-25T08:51:24.783Z,14.4
2019-04-25T08:52:15.655Z,14.4
2019-04-25T08:53:06.519Z,14.4
2019-04-25T08:53:57.385Z,14.4
2019-04-25T08:54:48.453Z,14.4
2019-04-25T08:55:39.554Z,14.4
2019-04-25T08:56:31.203Z,14.4
2019-04-25T08:57:23.599Z,14.4
2019-04-25T08:58:14.794Z,14.4
2019-04-25T08:59:07.885Z,14.4
2019-04-25T08:59:58.966Z,14.4
2019-04-25T09:00:58.918Z,14.4
2019-04-25T09:01:45.663Z,14.5
2019-04-25T09:02:37.741Z,14.5
2019-04-25T09:03:29.580Z,14.5
2019-04-25T09:04:20.460Z,14.5
2019-04-25T09:05:13.877Z,14.5
2019-04-25T09:06:05.357Z,14.5
2019-04-25T09:06:56.236Z,14.5
2019-04-25T09:07:47.101Z,14.5
2019-04-25T09:08:38.547Z,14.5
2019-04-25T09:09:30.233Z,14.5
2019-04-25T09:10:21.099Z,14.5
2019-04-25T09:11:13.324Z,14.5
2019-04-25T09:12:04.319Z,14.5
2019-04-25T09:12:55.191Z,14.6
2019-04-25T09:13:46.052Z,14.6
2019-04-25T09:14:37.780Z,14.6
2019-04-25T09:15:28.750Z,14.6
2019-04-25T09:16:19.644Z,14.6
2019-04-25T09:17:10.510Z,14.6
2019-04-25T09:18:01.387Z,14.6
2019-04-25T09:18:53.563Z,14.6
2019-04-25T09:19:45.334Z,14.6
2019-04-25T09:20:39.533Z,14.7
2019-04-25T09:21:33.207Z,14.7
2019-04-25T09:22:25.017Z,14.7
2019-04-25T09:23:15.889Z,14.7
2019-04-25T09:24:06.755Z,14.7
2019-04-25T09:24:57.632Z,14.7
2019-04-25T09:25:48.507Z,14.8
2019-04-25T09:26:40.012Z,14.8
2019-04-25T09:27:30.983Z,14.8
2019-04-25T09:28:21.855Z,14.8
2019-04-25T09:29:17.337Z,14.9
2019-04-25T09:30:08.530Z,14.9
2019-04-25T09:30:59.438Z,14.9
2019-04-25T09:31:50.339Z,14.9
2019-04-25T09:32:41.226Z,14.9
2019-04-25T09:33:32.093Z,14.9
2019-04-25T09:34:23.782Z,14.9
2019-04-25T09:35:14.785Z,15
2019-04-25T09:36:06.879Z,15
2019-04-25T09:36:58.002Z,15
2019-04-25T09:37:48.918Z,15
2019-04-25T09:38:39.786Z,15.1
2019-04-25T09:39:30.666Z,15.1
2019-04-25T09:40:21.529Z,15.1
2019-04-25T09:41:13.830Z,15.1
2019-04-25T09:42:06.038Z,15.1
2019-04-25T09:42:56.907Z,15.1
2019-04-25T09:43:48.659Z,15.1
2019-04-25T09:44:39.568Z,15.1
2019-04-25T09:45:30.431Z,15.1
2019-04-25T09:46:21.328Z,15.1
2019-04-25T09:47:13.604Z,15.2
2019-04-25T09:48:04.686Z,15.2
2019-04-25T09:48:55.651Z,15.2
2019-04-25T09:49:46.549Z,15.2
2019-04-25T09:50:38.594Z,15.3
2019-04-25T09:51:29.661Z,15.3
2019-04-25T09:52:25.528Z,15.3
2019-04-25T09:53:23.056Z,15.3
2019-04-25T09:54:13.147Z,15.3
2019-04-25T09:55:04.343Z,15.3
2019-04-25T09:55:55.204Z,15.3
2019-04-25T09:56:46.331Z,15.3
2019-04-25T09:57:38.909Z,15.3
2019-04-25T09:58:29.927Z,15.3
2019-04-25T09:59:27.042Z,15.4
2019-04-25T10:00:16.612Z,15.4
2019-04-25T10:01:07.477Z,15.4
2019-04-25T10:01:58.370Z,15.4
2019-04-25T10:02:49.233Z,15.4
2019-04-25T10:03:40.894Z,15.4
2019-04-25T10:04:34.331Z,15.4
2019-04-25T10:05:25.484Z,15.4
2019-04-25T10:06:16.350Z,15.4
2019-04-25T10:07:07.240Z,15.5
2019-04-25T10:07:58.119Z,15.5
2019-04-25T10:08:48.989Z,15.5
2019-04-25T10:09:40.650Z,15.5
2019-04-25T10:10:31.562Z,15.6
2019-04-25T10:11:23.700Z,15.6
2019-04-25T10:12:14.720Z,15.6
2019-04-25T10:13:06.535Z,15.6
2019-04-25T10:13:57.540Z,15.6
2019-04-25T10:14:49.160Z,15.6
2019-04-25T10:15:40.049Z,15.6
2019-04-25T10:16:30.926Z,15.6
2019-04-25T10:17:21.825Z,15.6
2019-04-25T10:18:14.168Z,15.6
2019-04-25T10:19:05.557Z,15.6
2019-04-25T10:19:56.434Z,15.7
2019-04-25T10:20:47.522Z,15.7
2019-04-25T10:21:38.445Z,15.7
2019-04-25T10:22:29.335Z,15.7
2019-04-25T10:23:20.199Z,15.7
2019-04-25T10:24:11.060Z,15.7
2019-04-25T10:25:03.330Z,15.7
2019-04-25T10:25:54.259Z,15.7
2019-04-25T10:26:45.462Z,15.8
2019-04-25T10:27:37.210Z,15.8
2019-04-25T10:28:28.072Z,15.8
2019-04-25T10:29:18.948Z,15.8
2019-04-25T10:30:17.380Z,15.8
2019-04-25T10:31:05.627Z,15.8
2019-04-25T10:31:56.665Z,15.8
2019-04-25T10:32:48.035Z,15.8
2019-04-25T10:33:39.727Z,15.8
2019-04-25T10:34:30.639Z,15.8
2019-04-25T10:35:21.515Z,15.8
2019-04-25T10:36:12.386Z,15.8
2019-04-25T10:37:03.342Z,15.8
2019-04-25T10:37:54.991Z,15.8
2019-04-25T10:39:00.434Z,15.8
2019-04-25T10:39:43.393Z,15.8
2019-04-25T10:40:34.661Z,15.8
2019-04-25T10:41:25.529Z,15.8
2019-04-25T10:42:16.394Z,15.8
2019-04-25T10:43:07.293Z,15.8
2019-04-25T10:43:58.183Z,15.8
2019-04-25T10:44:49.049Z,15.9
2019-04-25T10:45:40.675Z,15.9
2019-04-25T10:46:31.669Z,15.9
2019-04-25T10:47:22.539Z,15.9
2019-04-25T10:48:13.713Z,15.9
2019-04-25T10:49:04.637Z,15.9
2019-04-25T10:49:55.580Z,16
2019-04-25T10:50:47.385Z,16
2019-04-25T10:51:39.882Z,16
2019-04-25T10:52:30.991Z,16
2019-04-25T10:53:23.215Z,16
2019-04-25T10:54:15.847Z,16
2019-04-25T10:55:06.710Z,16
2019-04-25T10:55:57.576Z,16
2019-04-25T10:56:48.446Z,16
2019-04-25T10:57:39.364Z,16
2019-04-25T10:58:30.232Z,15.9
2019-04-25T10:59:21.107Z,15.9
2019-04-25T11:00:13.446Z,15.9
2019-04-25T11:01:04.597Z,15.9
2019-04-25T11:01:55.464Z,15.9
2019-04-25T11:02:47.253Z,15.9
2019-04-25T11:03:38.346Z,16
2019-04-25T11:04:29.215Z,16
2019-04-25T11:05:20.102Z,16
2019-04-25T11:06:10.966Z,16
2019-04-25T11:07:03.537Z,16
2019-04-25T11:07:55.890Z,16
2019-04-25T11:08:47.091Z,16.1
2019-04-25T11:09:38.008Z,16.1
2019-04-25T11:10:28.873Z,16.1
2019-04-25T11:11:19.735Z,16.1
2019-04-25T11:12:10.598Z,16.1
2019-04-25T11:13:01.486Z,16.1
2019-04-25T11:13:52.848Z,16.1
2019-04-25T11:14:45.118Z,16.1
2019-04-25T11:15:35.979Z,16.1
2019-04-25T11:16:26.843Z,16.1
2019-04-25T11:17:17.713Z,16.1
2019-04-25T11:18:08.602Z,16.1
2019-04-25T11:18:59.462Z,16.1
2019-04-25T11:19:51.166Z,16.1
2019-04-25T11:20:43.022Z,16.1
2019-04-25T11:21:35.235Z,16.1
2019-04-25T11:22:26.097Z,16.1
2019-04-25T11:23:16.989Z,16.1
2019-04-25T11:24:07.853Z,16.1
2019-04-25T11:24:58.721Z,16.1
2019-04-25T11:25:50.297Z,16.1
2019-04-25T11:26:41.521Z,16.2
2019-04-25T11:27:33.964Z,16.2
2019-04-25T11:28:24.923Z,16.2
2019-04-25T11:29:15.793Z,16.2
2019-04-25T11:30:10.565Z,16.1
2019-04-25T11:31:02.120Z,16.2
2019-04-25T11:31:53.386Z,16.2
2019-04-25T11:32:45.155Z,16.1